sensor_id;sensor_type;location;lat;lon;timestamp;P1;durP1;ratioP1;P2;durP2;ratioP2
38117;SDS011;23928;47.562;7.508;2023-01-04T00:00:44;9.33;;;6.30;;
38117;SDS011;23928;47.562;7.508;2023-01-04T00:03:10;8.17;;;6.17;;
38117;SDS011;23928;47.562;7.508;2023-01-04T00:05:36;9.70;;;6.90;;
38117;SDS011;23928;47.562;7.508;2023-01-04T00:08:02;9.17;;;6.57;;
38117;SDS011;23928;47.562;7.508;2023-01-04T00:10:27;7.90;;;6.63;;
38117;SDS011;23928;47.562;7.508;2023-01-04T00:12:53;8.03;;;6.20;;
38117;SDS011;23928;47.562;7.508;2023-01-04T00:15:18;9.60;;;6.50;;
38117;SDS011;23928;47.562;7.508;2023-01-04T00:17:44;12.43;;;7.70;;
38117;SDS011;23928;47.562;7.508;2023-01-04T00:20:10;12.40;;;8.07;;
38117;SDS011;23928;47.562;7.508;2023-01-04T00:22:36;24.73;;;10.10;;
38117;SDS011;23928;47.562;7.508;2023-01-04T00:25:01;11.63;;;7.13;;
38117;SDS011;23928;47.562;7.508;2023-01-04T00:27:27;18.53;;;7.97;;
38117;SDS011;23928;47.562;7.508;2023-01-04T00:29:52;17.17;;;8.00;;
38117;SDS011;23928;47.562;7.508;2023-01-04T00:32:18;14.57;;;7.83;;
38117;SDS011;23928;47.562;7.508;2023-01-04T00:34:44;14.13;;;7.83;;
38117;SDS011;23928;47.562;7.508;2023-01-04T00:37:09;21.93;;;7.50;;
38117;SDS011;23928;47.562;7.508;2023-01-04T00:39:35;29.37;;;7.87;;
38117;SDS011;23928;47.562;7.508;2023-01-04T00:42:00;32.97;;;9.30;;
38117;SDS011;23928;47.562;7.508;2023-01-04T00:44:32;21.93;;;10.23;;
38117;SDS011;23928;47.562;7.508;2023-01-04T00:46:59;27.73;;;10.13;;
38117;SDS011;23928;47.562;7.508;2023-01-04T00:49:27;18.60;;;9.03;;
38117;SDS011;23928;47.562;7.508;2023-01-04T00:51:53;29.93;;;8.57;;
38117;SDS011;23928;47.562;7.508;2023-01-04T00:54:19;24.53;;;8.80;;
38117;SDS011;23928;47.562;7.508;2023-01-04T00:56:45;48.40;;;9.03;;
38117;SDS011;23928;47.562;7.508;2023-01-04T00:59:11;44.47;;;10.43;;
38117;SDS011;23928;47.562;7.508;2023-01-04T01:01:38;42.97;;;9.37;;
38117;SDS011;23928;47.562;7.508;2023-01-04T01:04:05;43.67;;;7.80;;
38117;SDS011;23928;47.562;7.508;2023-01-04T01:06:31;41.80;;;8.00;;
38117;SDS011;23928;47.562;7.508;2023-01-04T01:08:58;25.93;;;7.80;;
38117;SDS011;23928;47.562;7.508;2023-01-04T01:11:24;33.00;;;7.97;;
38117;SDS011;23928;47.562;7.508;2023-01-04T01:13:51;26.80;;;8.53;;
38117;SDS011;23928;47.562;7.508;2023-01-04T01:16:17;27.20;;;6.97;;
38117;SDS011;23928;47.562;7.508;2023-01-04T01:18:45;23.77;;;6.33;;
38117;SDS011;23928;47.562;7.508;2023-01-04T01:21:12;21.27;;;6.17;;
38117;SDS011;23928;47.562;7.508;2023-01-04T01:23:39;12.77;;;5.87;;
38117;SDS011;23928;47.562;7.508;2023-01-04T01:26:06;7.67;;;5.63;;
38117;SDS011;23928;47.562;7.508;2023-01-04T01:28:34;8.17;;;4.73;;
38117;SDS011;23928;47.562;7.508;2023-01-04T01:31:11;9.63;;;4.50;;
38117;SDS011;23928;47.562;7.508;2023-01-04T01:33:40;10.43;;;5.30;;
38117;SDS011;23928;47.562;7.508;2023-01-04T01:36:07;11.93;;;5.20;;
38117;SDS011;23928;47.562;7.508;2023-01-04T01:38:34;10.63;;;5.23;;
38117;SDS011;23928;47.562;7.508;2023-01-04T01:41:00;10.93;;;5.43;;
38117;SDS011;23928;47.562;7.508;2023-01-04T01:43:46;14.77;;;5.90;;
38117;SDS011;23928;47.562;7.508;2023-01-04T01:46:14;17.47;;;7.33;;
38117;SDS011;23928;47.562;7.508;2023-01-04T01:48:42;11.80;;;6.80;;
38117;SDS011;23928;47.562;7.508;2023-01-04T01:51:08;9.50;;;6.00;;
38117;SDS011;23928;47.562;7.508;2023-01-04T01:53:36;11.83;;;5.60;;
38117;SDS011;23928;47.562;7.508;2023-01-04T01:56:04;10.70;;;5.73;;
38117;SDS011;23928;47.562;7.508;2023-01-04T01:58:40;11.23;;;5.27;;
38117;SDS011;23928;47.562;7.508;2023-01-04T02:01:08;8.57;;;5.30;;
38117;SDS011;23928;47.562;7.508;2023-01-04T02:03:35;8.23;;;4.93;;
38117;SDS011;23928;47.562;7.508;2023-01-04T02:06:04;6.37;;;4.77;;
38117;SDS011;23928;47.562;7.508;2023-01-04T02:08:32;9.97;;;5.23;;
38117;SDS011;23928;47.562;7.508;2023-01-04T02:10:59;15.17;;;5.70;;
38117;SDS011;23928;47.562;7.508;2023-01-04T02:13:26;8.50;;;5.40;;
38117;SDS011;23928;47.562;7.508;2023-01-04T02:16:18;8.13;;;5.17;;
38117;SDS011;23928;47.562;7.508;2023-01-04T02:18:53;8.17;;;5.13;;
38117;SDS011;23928;47.562;7.508;2023-01-04T02:21:54;9.33;;;5.33;;
38117;SDS011;23928;47.562;7.508;2023-01-04T02:29:55;11.03;;;6.27;;
38117;SDS011;23928;47.562;7.508;2023-01-04T02:38:21;12.90;;;5.93;;
38117;SDS011;23928;47.562;7.508;2023-01-04T02:41:15;19.43;;;6.23;;
38117;SDS011;23928;47.562;7.508;2023-01-04T02:46:39;10.10;;;5.33;;
38117;SDS011;23928;47.562;7.508;2023-01-04T02:49:10;15.87;;;6.13;;
38117;SDS011;23928;47.562;7.508;2023-01-04T02:51:55;8.97;;;5.90;;
38117;SDS011;23928;47.562;7.508;2023-01-04T02:54:21;32.47;;;7.87;;
38117;SDS011;23928;47.562;7.508;2023-01-04T03:05:27;14.87;;;7.07;;
38117;SDS011;23928;47.562;7.508;2023-01-04T03:08:52;19.47;;;7.17;;
38117;SDS011;23928;47.562;7.508;2023-01-04T03:11:16;16.90;;;7.27;;
38117;SDS011;23928;47.562;7.508;2023-01-04T03:14:02;18.40;;;6.17;;
38117;SDS011;23928;47.562;7.508;2023-01-04T03:16:28;11.10;;;6.47;;
38117;SDS011;23928;47.562;7.508;2023-01-04T03:18:56;7.03;;;5.00;;
38117;SDS011;23928;47.562;7.508;2023-01-04T03:21:28;11.03;;;5.93;;
38117;SDS011;23928;47.562;7.508;2023-01-04T03:23:55;16.43;;;5.30;;
38117;SDS011;23928;47.562;7.508;2023-01-04T03:26:45;9.07;;;4.80;;
38117;SDS011;23928;47.562;7.508;2023-01-04T03:30:23;12.93;;;5.43;;
38117;SDS011;23928;47.562;7.508;2023-01-04T03:33:03;8.57;;;5.43;;
38117;SDS011;23928;47.562;7.508;2023-01-04T03:35:57;6.10;;;4.73;;
38117;SDS011;23928;47.562;7.508;2023-01-04T03:38:43;8.23;;;4.47;;
38117;SDS011;23928;47.562;7.508;2023-01-04T03:41:47;7.90;;;5.23;;
38117;SDS011;23928;47.562;7.508;2023-01-04T03:44:45;10.47;;;5.70;;
38117;SDS011;23928;47.562;7.508;2023-01-04T03:47:32;16.73;;;5.80;;
38117;SDS011;23928;47.562;7.508;2023-01-04T03:50:24;18.10;;;5.80;;
38117;SDS011;23928;47.562;7.508;2023-01-04T03:52:53;12.40;;;5.83;;
38117;SDS011;23928;47.562;7.508;2023-01-04T03:55:20;8.13;;;5.97;;
38117;SDS011;23928;47.562;7.508;2023-01-04T03:57:48;7.90;;;5.40;;
38117;SDS011;23928;47.562;7.508;2023-01-04T04:00:15;6.37;;;5.23;;
38117;SDS011;23928;47.562;7.508;2023-01-04T04:02:44;7.57;;;5.43;;
38117;SDS011;23928;47.562;7.508;2023-01-04T04:05:15;8.07;;;5.53;;
38117;SDS011;23928;47.562;7.508;2023-01-04T04:08:01;8.23;;;5.87;;
38117;SDS011;23928;47.562;7.508;2023-01-04T04:10:46;8.47;;;5.90;;
38117;SDS011;23928;47.562;7.508;2023-01-04T04:13:11;7.70;;;5.23;;
38117;SDS011;23928;47.562;7.508;2023-01-04T04:15:37;7.83;;;5.50;;
38117;SDS011;23928;47.562;7.508;2023-01-04T04:18:03;6.67;;;5.20;;
38117;SDS011;23928;47.562;7.508;2023-01-04T04:20:29;5.63;;;4.77;;
38117;SDS011;23928;47.562;7.508;2023-01-04T04:22:55;7.87;;;5.30;;
38117;SDS011;23928;47.562;7.508;2023-01-04T04:25:20;6.67;;;5.00;;
38117;SDS011;23928;47.562;7.508;2023-01-04T04:27:46;5.47;;;4.67;;
38117;SDS011;23928;47.562;7.508;2023-01-04T04:30:12;6.93;;;5.40;;
38117;SDS011;23928;47.562;7.508;2023-01-04T04:32:37;5.27;;;4.40;;
38117;SDS011;23928;47.562;7.508;2023-01-04T04:35:03;7.10;;;4.80;;
38117;SDS011;23928;47.562;7.508;2023-01-04T04:37:29;6.80;;;4.70;;
38117;SDS011;23928;47.562;7.508;2023-01-04T04:39:56;6.47;;;5.10;;
38117;SDS011;23928;47.562;7.508;2023-01-04T04:42:22;6.57;;;4.97;;
38117;SDS011;23928;47.562;7.508;2023-01-04T04:44:48;6.37;;;4.60;;
38117;SDS011;23928;47.562;7.508;2023-01-04T04:47:13;7.53;;;5.07;;
38117;SDS011;23928;47.562;7.508;2023-01-04T04:49:39;6.23;;;4.67;;
38117;SDS011;23928;47.562;7.508;2023-01-04T04:52:04;6.57;;;4.87;;
38117;SDS011;23928;47.562;7.508;2023-01-04T04:54:30;6.20;;;4.50;;
38117;SDS011;23928;47.562;7.508;2023-01-04T04:56:56;6.13;;;4.40;;
38117;SDS011;23928;47.562;7.508;2023-01-04T04:59:21;5.20;;;4.10;;
38117;SDS011;23928;47.562;7.508;2023-01-04T05:01:47;5.93;;;4.60;;
38117;SDS011;23928;47.562;7.508;2023-01-04T05:04:12;6.97;;;4.63;;
38117;SDS011;23928;47.562;7.508;2023-01-04T05:06:41;6.47;;;4.63;;
38117;SDS011;23928;47.562;7.508;2023-01-04T05:09:07;6.13;;;4.60;;
38117;SDS011;23928;47.562;7.508;2023-01-04T05:11:34;7.40;;;5.17;;
38117;SDS011;23928;47.562;7.508;2023-01-04T05:14:18;5.37;;;4.33;;
38117;SDS011;23928;47.562;7.508;2023-01-04T05:16:43;5.37;;;4.60;;
38117;SDS011;23928;47.562;7.508;2023-01-04T05:19:09;6.57;;;5.17;;
38117;SDS011;23928;47.562;7.508;2023-01-04T05:21:35;6.85;;;4.45;;
38117;SDS011;23928;47.562;7.508;2023-01-04T05:24:00;5.37;;;4.47;;
38117;SDS011;23928;47.562;7.508;2023-01-04T05:26:26;7.33;;;5.40;;
38117;SDS011;23928;47.562;7.508;2023-01-04T05:28:51;6.50;;;5.10;;
38117;SDS011;23928;47.562;7.508;2023-01-04T05:31:17;7.00;;;4.90;;
38117;SDS011;23928;47.562;7.508;2023-01-04T05:33:43;6.83;;;5.30;;
38117;SDS011;23928;47.562;7.508;2023-01-04T05:36:08;6.73;;;5.03;;
38117;SDS011;23928;47.562;7.508;2023-01-04T05:38:34;8.60;;;5.63;;
38117;SDS011;23928;47.562;7.508;2023-01-04T05:41:00;7.03;;;4.97;;
38117;SDS011;23928;47.562;7.508;2023-01-04T05:43:26;7.40;;;4.73;;
38117;SDS011;23928;47.562;7.508;2023-01-04T05:45:52;7.50;;;5.10;;
38117;SDS011;23928;47.562;7.508;2023-01-04T05:48:20;8.37;;;5.40;;
38117;SDS011;23928;47.562;7.508;2023-01-04T05:50:46;8.37;;;5.47;;
38117;SDS011;23928;47.562;7.508;2023-01-04T05:53:13;6.37;;;4.77;;
38117;SDS011;23928;47.562;7.508;2023-01-04T05:55:41;7.87;;;5.40;;
38117;SDS011;23928;47.562;7.508;2023-01-04T05:58:07;8.00;;;5.40;;
38117;SDS011;23928;47.562;7.508;2023-01-04T06:00:33;6.97;;;4.90;;
38117;SDS011;23928;47.562;7.508;2023-01-04T06:02:59;8.63;;;5.87;;
38117;SDS011;23928;47.562;7.508;2023-01-04T06:05:24;7.03;;;5.13;;
38117;SDS011;23928;47.562;7.508;2023-01-04T06:07:50;7.17;;;5.80;;
38117;SDS011;23928;47.562;7.508;2023-01-04T06:10:16;6.13;;;4.43;;
38117;SDS011;23928;47.562;7.508;2023-01-04T06:12:42;5.83;;;4.20;;
38117;SDS011;23928;47.562;7.508;2023-01-04T06:15:09;5.90;;;4.97;;
38117;SDS011;23928;47.562;7.508;2023-01-04T06:17:36;7.80;;;4.97;;
38117;SDS011;23928;47.562;7.508;2023-01-04T06:20:03;6.30;;;5.10;;
38117;SDS011;23928;47.562;7.508;2023-01-04T06:22:30;6.27;;;4.50;;
38117;SDS011;23928;47.562;7.508;2023-01-04T06:24:56;7.27;;;5.10;;
38117;SDS011;23928;47.562;7.508;2023-01-04T06:27:22;6.43;;;4.70;;
38117;SDS011;23928;47.562;7.508;2023-01-04T06:29:48;6.27;;;4.57;;
38117;SDS011;23928;47.562;7.508;2023-01-04T06:32:14;5.97;;;4.70;;
38117;SDS011;23928;47.562;7.508;2023-01-04T06:34:40;6.47;;;4.70;;
38117;SDS011;23928;47.562;7.508;2023-01-04T06:37:05;6.97;;;5.27;;
38117;SDS011;23928;47.562;7.508;2023-01-04T06:39:31;6.07;;;4.83;;
38117;SDS011;23928;47.562;7.508;2023-01-04T06:41:57;7.90;;;5.47;;
38117;SDS011;23928;47.562;7.508;2023-01-04T06:44:22;6.33;;;4.67;;
38117;SDS011;23928;47.562;7.508;2023-01-04T06:46:48;6.57;;;4.60;;
38117;SDS011;23928;47.562;7.508;2023-01-04T06:49:13;7.03;;;4.77;;
38117;SDS011;23928;47.562;7.508;2023-01-04T06:51:39;4.87;;;4.03;;
38117;SDS011;23928;47.562;7.508;2023-01-04T06:54:05;6.43;;;5.00;;
38117;SDS011;23928;47.562;7.508;2023-01-04T06:56:31;5.73;;;4.40;;
38117;SDS011;23928;47.562;7.508;2023-01-04T06:58:58;6.43;;;4.30;;
38117;SDS011;23928;47.562;7.508;2023-01-04T07:01:23;9.40;;;4.87;;
38117;SDS011;23928;47.562;7.508;2023-01-04T07:03:49;8.17;;;5.10;;
38117;SDS011;23928;47.562;7.508;2023-01-04T07:06:15;7.53;;;4.53;;
38117;SDS011;23928;47.562;7.508;2023-01-04T07:08:40;6.17;;;4.17;;
38117;SDS011;23928;47.562;7.508;2023-01-04T07:11:06;5.57;;;4.17;;
38117;SDS011;23928;47.562;7.508;2023-01-04T07:13:32;5.50;;;4.07;;
38117;SDS011;23928;47.562;7.508;2023-01-04T07:15:57;4.70;;;3.73;;
38117;SDS011;23928;47.562;7.508;2023-01-04T07:18:23;7.03;;;5.30;;
38117;SDS011;23928;47.562;7.508;2023-01-04T07:20:48;5.37;;;3.93;;
38117;SDS011;23928;47.562;7.508;2023-01-04T07:23:14;5.40;;;4.10;;
38117;SDS011;23928;47.562;7.508;2023-01-04T07:25:40;6.77;;;4.37;;
38117;SDS011;23928;47.562;7.508;2023-01-04T07:28:05;6.07;;;4.20;;
38117;SDS011;23928;47.562;7.508;2023-01-04T07:30:31;4.37;;;3.80;;
38117;SDS011;23928;47.562;7.508;2023-01-04T07:32:56;5.13;;;4.10;;
38117;SDS011;23928;47.562;7.508;2023-01-04T07:35:22;7.30;;;3.73;;
38117;SDS011;23928;47.562;7.508;2023-01-04T07:37:48;5.07;;;3.97;;
38117;SDS011;23928;47.562;7.508;2023-01-04T07:40:14;5.33;;;4.37;;
38117;SDS011;23928;47.562;7.508;2023-01-04T07:42:40;6.10;;;3.73;;
38117;SDS011;23928;47.562;7.508;2023-01-04T07:45:06;7.27;;;4.20;;
38117;SDS011;23928;47.562;7.508;2023-01-04T07:47:32;4.37;;;3.53;;
38117;SDS011;23928;47.562;7.508;2023-01-04T07:49:57;5.53;;;4.03;;
38117;SDS011;23928;47.562;7.508;2023-01-04T07:52:24;5.80;;;3.83;;
38117;SDS011;23928;47.562;7.508;2023-01-04T07:54:50;5.73;;;4.10;;
38117;SDS011;23928;47.562;7.508;2023-01-04T07:57:16;9.50;;;6.70;;
38117;SDS011;23928;47.562;7.508;2023-01-04T07:59:41;6.77;;;4.83;;
38117;SDS011;23928;47.562;7.508;2023-01-04T08:02:10;8.37;;;5.73;;
38117;SDS011;23928;47.562;7.508;2023-01-04T08:04:36;7.50;;;5.43;;
38117;SDS011;23928;47.562;7.508;2023-01-04T08:07:02;7.83;;;5.30;;
38117;SDS011;23928;47.562;7.508;2023-01-04T08:09:28;6.37;;;5.10;;
38117;SDS011;23928;47.562;7.508;2023-01-04T08:11:54;5.43;;;4.37;;
38117;SDS011;23928;47.562;7.508;2023-01-04T08:14:19;5.80;;;4.60;;
38117;SDS011;23928;47.562;7.508;2023-01-04T08:16:45;5.77;;;4.40;;
38117;SDS011;23928;47.562;7.508;2023-01-04T08:19:12;5.33;;;3.93;;
38117;SDS011;23928;47.562;7.508;2023-01-04T08:21:39;5.03;;;4.43;;
38117;SDS011;23928;47.562;7.508;2023-01-04T08:24:06;6.07;;;4.73;;
38117;SDS011;23928;47.562;7.508;2023-01-04T08:26:33;6.77;;;5.20;;
38117;SDS011;23928;47.562;7.508;2023-01-04T08:28:59;7.60;;;4.70;;
38117;SDS011;23928;47.562;7.508;2023-01-04T08:31:26;7.03;;;4.53;;
38117;SDS011;23928;47.562;7.508;2023-01-04T08:33:53;5.80;;;4.47;;
38117;SDS011;23928;47.562;7.508;2023-01-04T08:38:53;6.20;;;4.93;;
38117;SDS011;23928;47.562;7.508;2023-01-04T08:41:20;6.47;;;4.90;;
38117;SDS011;23928;47.562;7.508;2023-01-04T08:43:46;10.13;;;6.80;;
38117;SDS011;23928;47.562;7.508;2023-01-04T08:46:12;6.13;;;4.83;;
38117;SDS011;23928;47.562;7.508;2023-01-04T08:48:38;7.63;;;4.70;;
38117;SDS011;23928;47.562;7.508;2023-01-04T08:51:05;7.27;;;5.10;;
38117;SDS011;23928;47.562;7.508;2023-01-04T08:53:33;8.67;;;5.10;;
38117;SDS011;23928;47.562;7.508;2023-01-04T08:55:59;6.63;;;4.93;;
38117;SDS011;23928;47.562;7.508;2023-01-04T08:58:25;10.20;;;6.87;;
38117;SDS011;23928;47.562;7.508;2023-01-04T09:00:51;9.53;;;6.17;;
38117;SDS011;23928;47.562;7.508;2023-01-04T09:03:17;7.40;;;4.77;;
38117;SDS011;23928;47.562;7.508;2023-01-04T09:05:43;5.43;;;4.13;;
38117;SDS011;23928;47.562;7.508;2023-01-04T09:08:09;12.27;;;4.97;;
38117;SDS011;23928;47.562;7.508;2023-01-04T09:10:38;9.07;;;5.40;;
38117;SDS011;23928;47.562;7.508;2023-01-04T09:13:04;6.53;;;4.67;;
38117;SDS011;23928;47.562;7.508;2023-01-04T09:15:30;6.37;;;4.73;;
38117;SDS011;23928;47.562;7.508;2023-01-04T09:17:57;8.50;;;5.63;;
38117;SDS011;23928;47.562;7.508;2023-01-04T09:20:22;8.63;;;5.77;;
38117;SDS011;23928;47.562;7.508;2023-01-04T09:22:48;7.80;;;5.37;;
38117;SDS011;23928;47.562;7.508;2023-01-04T09:25:13;8.30;;;5.80;;
38117;SDS011;23928;47.562;7.508;2023-01-04T09:27:39;9.73;;;5.97;;
38117;SDS011;23928;47.562;7.508;2023-01-04T09:30:05;7.80;;;5.30;;
38117;SDS011;23928;47.562;7.508;2023-01-04T09:32:31;8.27;;;5.73;;
38117;SDS011;23928;47.562;7.508;2023-01-04T09:34:57;8.17;;;5.27;;
38117;SDS011;23928;47.562;7.508;2023-01-04T09:37:22;8.27;;;5.60;;
38117;SDS011;23928;47.562;7.508;2023-01-04T09:39:48;6.57;;;4.70;;
38117;SDS011;23928;47.562;7.508;2023-01-04T09:42:21;9.93;;;5.30;;
38117;SDS011;23928;47.562;7.508;2023-01-04T09:44:49;9.27;;;5.30;;
38117;SDS011;23928;47.562;7.508;2023-01-04T09:49:59;7.60;;;5.17;;
38117;SDS011;23928;47.562;7.508;2023-01-04T09:55:01;10.17;;;5.57;;
38117;SDS011;23928;47.562;7.508;2023-01-04T09:57:31;7.43;;;5.67;;
38117;SDS011;23928;47.562;7.508;2023-01-04T10:00:15;7.73;;;5.17;;
38117;SDS011;23928;47.562;7.508;2023-01-04T10:02:48;8.83;;;5.90;;
38117;SDS011;23928;47.562;7.508;2023-01-04T10:05:21;9.23;;;5.97;;
38117;SDS011;23928;47.562;7.508;2023-01-04T10:07:49;8.20;;;5.40;;
38117;SDS011;23928;47.562;7.508;2023-01-04T10:10:16;6.53;;;4.90;;
38117;SDS011;23928;47.562;7.508;2023-01-04T10:12:56;10.07;;;5.20;;
38117;SDS011;23928;47.562;7.508;2023-01-04T10:15:40;9.40;;;5.00;;
38117;SDS011;23928;47.562;7.508;2023-01-04T10:21:30;11.10;;;5.60;;
38117;SDS011;23928;47.562;7.508;2023-01-04T10:26:23;7.77;;;5.40;;
38117;SDS011;23928;47.562;7.508;2023-01-04T10:31:56;8.20;;;5.57;;
38117;SDS011;23928;47.562;7.508;2023-01-04T10:34:41;7.60;;;5.20;;
38117;SDS011;23928;47.562;7.508;2023-01-04T10:37:13;8.13;;;5.00;;
38117;SDS011;23928;47.562;7.508;2023-01-04T10:39:40;7.20;;;4.63;;
38117;SDS011;23928;47.562;7.508;2023-01-04T10:51:01;6.40;;;4.73;;
38117;SDS011;23928;47.562;7.508;2023-01-04T11:01:21;9.93;;;5.27;;
38117;SDS011;23928;47.562;7.508;2023-01-04T11:06:29;10.77;;;5.67;;
38117;SDS011;23928;47.562;7.508;2023-01-04T11:09:04;6.27;;;4.73;;
38117;SDS011;23928;47.562;7.508;2023-01-04T11:11:38;8.67;;;5.57;;
38117;SDS011;23928;47.562;7.508;2023-01-04T11:14:06;11.20;;;5.83;;
38117;SDS011;23928;47.562;7.508;2023-01-04T11:16:34;7.73;;;6.23;;
38117;SDS011;23928;47.562;7.508;2023-01-04T11:19:00;12.27;;;6.63;;
38117;SDS011;23928;47.562;7.508;2023-01-04T11:21:28;9.70;;;6.50;;
38117;SDS011;23928;47.562;7.508;2023-01-04T11:24:01;10.03;;;7.13;;
38117;SDS011;23928;47.562;7.508;2023-01-04T11:26:31;11.30;;;7.10;;
38117;SDS011;23928;47.562;7.508;2023-01-04T11:29:03;15.50;;;7.47;;
38117;SDS011;23928;47.562;7.508;2023-01-04T11:31:56;11.10;;;7.77;;
38117;SDS011;23928;47.562;7.508;2023-01-04T11:40:38;12.57;;;7.27;;
38117;SDS011;23928;47.562;7.508;2023-01-04T11:42:45;10.17;;;6.13;;
38117;SDS011;23928;47.562;7.508;2023-01-04T11:45:34;11.80;;;6.60;;
38117;SDS011;23928;47.562;7.508;2023-01-04T11:48:00;10.73;;;5.90;;
38117;SDS011;23928;47.562;7.508;2023-01-04T11:50:43;9.13;;;5.77;;
38117;SDS011;23928;47.562;7.508;2023-01-04T11:53:27;10.93;;;6.83;;
38117;SDS011;23928;47.562;7.508;2023-01-04T11:58:36;12.17;;;7.67;;
38117;SDS011;23928;47.562;7.508;2023-01-04T12:01:02;11.60;;;6.90;;
38117;SDS011;23928;47.562;7.508;2023-01-04T12:03:34;7.27;;;5.37;;
38117;SDS011;23928;47.562;7.508;2023-01-04T12:06:17;8.83;;;5.30;;
38117;SDS011;23928;47.562;7.508;2023-01-04T12:08:46;8.13;;;4.43;;
38117;SDS011;23928;47.562;7.508;2023-01-04T12:11:34;6.97;;;5.10;;
38117;SDS011;23928;47.562;7.508;2023-01-04T12:14:00;8.23;;;4.90;;
38117;SDS011;23928;47.562;7.508;2023-01-04T12:19:08;7.60;;;5.10;;
38117;SDS011;23928;47.562;7.508;2023-01-04T12:21:39;9.47;;;5.27;;
38117;SDS011;23928;47.562;7.508;2023-01-04T12:24:08;16.77;;;12.27;;
38117;SDS011;23928;47.562;7.508;2023-01-04T12:26:39;6.47;;;5.50;;
38117;SDS011;23928;47.562;7.508;2023-01-04T12:31:50;7.00;;;5.07;;
38117;SDS011;23928;47.562;7.508;2023-01-04T12:37:04;7.90;;;5.40;;
38117;SDS011;23928;47.562;7.508;2023-01-04T12:39:40;7.40;;;5.43;;
38117;SDS011;23928;47.562;7.508;2023-01-04T12:47:01;7.70;;;4.23;;
38117;SDS011;23928;47.562;7.508;2023-01-04T13:07:51;11.67;;;5.93;;
38117;SDS011;23928;47.562;7.508;2023-01-04T13:10:31;4.97;;;3.37;;
38117;SDS011;23928;47.562;7.508;2023-01-04T13:13:51;5.47;;;3.30;;
38117;SDS011;23928;47.562;7.508;2023-01-04T13:16:30;6.10;;;3.37;;
38117;SDS011;23928;47.562;7.508;2023-01-04T13:19:00;5.60;;;3.77;;
38117;SDS011;23928;47.562;7.508;2023-01-04T13:21:41;4.53;;;3.40;;
38117;SDS011;23928;47.562;7.508;2023-01-04T13:26:49;5.43;;;2.67;;
38117;SDS011;23928;47.562;7.508;2023-01-04T13:29:20;5.50;;;2.83;;
38117;SDS011;23928;47.562;7.508;2023-01-04T13:34:15;7.10;;;2.90;;
38117;SDS011;23928;47.562;7.508;2023-01-04T13:36:51;5.40;;;2.73;;
38117;SDS011;23928;47.562;7.508;2023-01-04T13:39:29;15.53;;;7.83;;
38117;SDS011;23928;47.562;7.508;2023-01-04T13:41:55;14.47;;;7.50;;
38117;SDS011;23928;47.562;7.508;2023-01-04T13:44:33;12.47;;;7.23;;
38117;SDS011;23928;47.562;7.508;2023-01-04T13:47:04;11.37;;;8.73;;
38117;SDS011;23928;47.562;7.508;2023-01-04T13:49:35;6.57;;;4.90;;
38117;SDS011;23928;47.562;7.508;2023-01-04T13:54:50;11.07;;;7.23;;
38117;SDS011;23928;47.562;7.508;2023-01-04T13:57:16;8.63;;;6.17;;
38117;SDS011;23928;47.562;7.508;2023-01-04T13:59:49;5.30;;;4.00;;
38117;SDS011;23928;47.562;7.508;2023-01-04T14:02:19;9.30;;;6.47;;
38117;SDS011;23928;47.562;7.508;2023-01-04T14:04:46;8.60;;;5.73;;
38117;SDS011;23928;47.562;7.508;2023-01-04T14:07:23;6.47;;;4.50;;
38117;SDS011;23928;47.562;7.508;2023-01-04T14:09:51;6.63;;;4.20;;
38117;SDS011;23928;47.562;7.508;2023-01-04T14:12:21;5.60;;;4.07;;
38117;SDS011;23928;47.562;7.508;2023-01-04T14:17:36;5.93;;;4.40;;
38117;SDS011;23928;47.562;7.508;2023-01-04T14:30:44;13.63;;;7.43;;
38117;SDS011;23928;47.562;7.508;2023-01-04T14:33:14;14.90;;;8.07;;
38117;SDS011;23928;47.562;7.508;2023-01-04T14:35:59;15.67;;;9.50;;
38117;SDS011;23928;47.562;7.508;2023-01-04T14:38:25;19.50;;;11.93;;
38117;SDS011;23928;47.562;7.508;2023-01-04T14:40:51;11.77;;;7.87;;
38117;SDS011;23928;47.562;7.508;2023-01-04T14:43:42;7.70;;;5.23;;
38117;SDS011;23928;47.562;7.508;2023-01-04T14:46:10;6.40;;;4.10;;
38117;SDS011;23928;47.562;7.508;2023-01-04T14:48:35;6.77;;;4.30;;
38117;SDS011;23928;47.562;7.508;2023-01-04T14:51:01;6.70;;;3.80;;
38117;SDS011;23928;47.562;7.508;2023-01-04T14:53:28;7.50;;;3.97;;
38117;SDS011;23928;47.562;7.508;2023-01-04T14:55:54;5.80;;;4.50;;
38117;SDS011;23928;47.562;7.508;2023-01-04T14:58:20;10.50;;;5.03;;
38117;SDS011;23928;47.562;7.508;2023-01-04T15:00:46;6.90;;;4.43;;
38117;SDS011;23928;47.562;7.508;2023-01-04T15:03:12;6.80;;;5.23;;
38117;SDS011;23928;47.562;7.508;2023-01-04T15:05:38;5.83;;;4.67;;
38117;SDS011;23928;47.562;7.508;2023-01-04T15:08:05;9.83;;;5.83;;
38117;SDS011;23928;47.562;7.508;2023-01-04T15:10:33;5.90;;;4.93;;
38117;SDS011;23928;47.562;7.508;2023-01-04T15:12:58;9.33;;;5.70;;
38117;SDS011;23928;47.562;7.508;2023-01-04T15:15:25;6.60;;;5.63;;
38117;SDS011;23928;47.562;7.508;2023-01-04T15:17:50;9.43;;;6.20;;
38117;SDS011;23928;47.562;7.508;2023-01-04T15:20:16;9.07;;;6.90;;
38117;SDS011;23928;47.562;7.508;2023-01-04T15:22:42;10.70;;;6.90;;
38117;SDS011;23928;47.562;7.508;2023-01-04T15:25:08;7.73;;;6.00;;
38117;SDS011;23928;47.562;7.508;2023-01-04T15:27:34;10.17;;;6.80;;
38117;SDS011;23928;47.562;7.508;2023-01-04T15:30:00;11.77;;;7.17;;
38117;SDS011;23928;47.562;7.508;2023-01-04T15:32:26;10.10;;;6.30;;
38117;SDS011;23928;47.562;7.508;2023-01-04T15:34:51;13.90;;;7.33;;
38117;SDS011;23928;47.562;7.508;2023-01-04T15:37:17;12.10;;;6.23;;
38117;SDS011;23928;47.562;7.508;2023-01-04T15:39:45;12.90;;;7.50;;
38117;SDS011;23928;47.562;7.508;2023-01-04T15:42:11;16.13;;;7.07;;
38117;SDS011;23928;47.562;7.508;2023-01-04T15:44:55;9.83;;;7.13;;
38117;SDS011;23928;47.562;7.508;2023-01-04T15:47:21;11.30;;;7.20;;
38117;SDS011;23928;47.562;7.508;2023-01-04T15:49:46;11.87;;;7.23;;
38117;SDS011;23928;47.562;7.508;2023-01-04T15:52:12;12.83;;;7.90;;
38117;SDS011;23928;47.562;7.508;2023-01-04T15:54:38;11.77;;;7.17;;
38117;SDS011;23928;47.562;7.508;2023-01-04T15:57:03;10.30;;;6.90;;
38117;SDS011;23928;47.562;7.508;2023-01-04T15:59:29;9.73;;;6.37;;
38117;SDS011;23928;47.562;7.508;2023-01-04T16:01:55;8.37;;;5.67;;
38117;SDS011;23928;47.562;7.508;2023-01-04T16:04:20;9.60;;;6.20;;
38117;SDS011;23928;47.562;7.508;2023-01-04T16:06:46;9.90;;;6.27;;
38117;SDS011;23928;47.562;7.508;2023-01-04T16:09:12;10.67;;;7.20;;
38117;SDS011;23928;47.562;7.508;2023-01-04T16:11:37;14.67;;;7.67;;
38117;SDS011;23928;47.562;7.508;2023-01-04T16:14:23;15.57;;;9.43;;
38117;SDS011;23928;47.562;7.508;2023-01-04T16:16:48;20.70;;;13.17;;
38117;SDS011;23928;47.562;7.508;2023-01-04T16:19:14;20.10;;;11.70;;
38117;SDS011;23928;47.562;7.508;2023-01-04T16:21:39;15.73;;;8.77;;
38117;SDS011;23928;47.562;7.508;2023-01-04T16:24:05;16.87;;;8.77;;
38117;SDS011;23928;47.562;7.508;2023-01-04T16:26:33;16.90;;;9.13;;
38117;SDS011;23928;47.562;7.508;2023-01-04T16:28:59;13.43;;;9.17;;
38117;SDS011;23928;47.562;7.508;2023-01-04T16:31:30;13.67;;;7.27;;
38117;SDS011;23928;47.562;7.508;2023-01-04T16:34:00;13.17;;;7.73;;
38117;SDS011;23928;47.562;7.508;2023-01-04T16:36:26;12.77;;;7.90;;
38117;SDS011;23928;47.562;7.508;2023-01-04T16:38:51;11.90;;;7.57;;
38117;SDS011;23928;47.562;7.508;2023-01-04T16:41:18;12.20;;;7.30;;
38117;SDS011;23928;47.562;7.508;2023-01-04T16:48:36;10.87;;;7.33;;
38117;SDS011;23928;47.562;7.508;2023-01-04T16:51:05;10.43;;;7.70;;
38117;SDS011;23928;47.562;7.508;2023-01-04T16:53:31;10.17;;;6.97;;
38117;SDS011;23928;47.562;7.508;2023-01-04T16:55:56;18.70;;;7.50;;
38117;SDS011;23928;47.562;7.508;2023-01-04T16:58:27;14.53;;;9.30;;
38117;SDS011;23928;47.562;7.508;2023-01-04T17:00:54;15.03;;;9.37;;